createdAt,value
2019-02-22T00:00:17.079Z,98.20
2019-02-22T00:02:43.660Z,98.30
2019-02-22T00:05:10.077Z,98.34
2019-02-22T00:07:36.782Z,98.34
2019-02-22T00:10:04.657Z,97.90
2019-02-22T00:12:31.237Z,96.54
2019-02-22T00:14:57.755Z,96.27
2019-02-22T00:17:24.245Z,96.37
2019-02-22T00:19:50.766Z,96.21
2019-02-22T00:22:17.132Z,95.93
2019-02-22T00:24:43.752Z,95.76
2019-02-22T00:27:10.137Z,95.84
2019-02-22T00:29:36.672Z,96.05
2019-02-22T00:32:03.367Z,96.03
2019-02-22T00:34:30.029Z,95.84
2019-02-22T00:36:56.869Z,95.80
2019-02-22T00:39:23.289Z,95.84
2019-02-22T00:41:49.713Z,95.96
2019-02-22T00:44:16.569Z,95.59
2019-02-22T00:46:42.972Z,95.89
2019-02-22T00:49:09.439Z,95.65
2019-02-22T00:51:35.716Z,95.33
2019-02-22T00:54:02.148Z,95.17
2019-02-22T00:56:28.705Z,95.18
2019-02-22T00:58:55.309Z,94.89
2019-02-22T01:01:21.794Z,95.14
2019-02-22T01:03:48.138Z,95.24
2019-02-22T01:06:15.061Z,95.00
2019-02-22T01:08:41.309Z,94.99
2019-02-22T01:11:08.521Z,94.87
2019-02-22T01:17:09.932Z,94.28
2019-02-22T01:19:36.487Z,93.74
2019-02-22T01:22:03.163Z,94.27
2019-02-22T01:24:35.288Z,94.44
2019-02-22T01:27:01.731Z,94.16
2019-02-22T01:29:28.081Z,93.21
2019-02-22T01:31:54.946Z,93.17
2019-02-22T01:34:21.327Z,93.47
2019-02-22T01:36:48.176Z,93.29
2019-02-22T01:39:14.845Z,92.95
2019-02-22T01:41:42.788Z,93.23
2019-02-22T01:44:18.100Z,93.16
2019-02-22T01:46:44.887Z,92.81
2019-02-22T01:49:11.427Z,90.94
2019-02-22T01:51:38.370Z,89.17
2019-02-22T01:54:04.680Z,89.76
2019-02-22T01:56:31.308Z,89.71
2019-02-22T01:58:57.844Z,89.31
2019-02-22T02:01:24.187Z,89.55
2019-02-22T02:03:50.609Z,90.14
2019-02-22T02:06:17.197Z,90.38
2019-02-22T02:08:43.704Z,90.16
2019-02-22T02:11:10.133Z,88.81
2019-02-22T02:13:36.552Z,89.42
2019-02-22T02:16:02.861Z,89.50
2019-02-22T02:18:29.204Z,89.78
2019-02-22T02:20:55.569Z,89.26
2019-02-22T02:23:21.924Z,89.66
2019-02-22T02:25:48.279Z,89.51
2019-02-22T02:28:14.691Z,88.92
2019-02-22T02:30:41.255Z,88.33
2019-02-22T02:33:07.784Z,87.80
2019-02-22T02:35:34.090Z,89.42
2019-02-22T02:38:00.744Z,88.55
2019-02-22T02:40:27.500Z,88.02
2019-02-22T02:42:53.841Z,87.52
2019-02-22T02:45:21.305Z,87.30
2019-02-22T02:47:47.722Z,86.63
2019-02-22T02:50:15.748Z,86.16
2019-02-22T02:52:42.097Z,86.36
2019-02-22T02:55:25.925Z,85.17
2019-02-22T02:57:52.432Z,84.69
2019-02-22T03:00:18.940Z,85.53
2019-02-22T03:02:45.258Z,85.90
2019-02-22T03:05:11.685Z,85.29
2019-02-22T03:07:39.877Z,85.31
2019-02-22T03:10:07.042Z,85.63
2019-02-22T03:12:33.281Z,85.59
2019-02-22T03:14:59.686Z,86.33
2019-02-22T03:17:26.083Z,86.06
2019-02-22T03:19:52.651Z,86.36
2019-02-22T03:22:19.032Z,86.48
2019-02-22T03:24:45.319Z,86.00
2019-02-22T03:27:11.805Z,85.48
2019-02-22T03:29:38.199Z,84.95
2019-02-22T03:32:04.622Z,85.06
2019-02-22T03:34:30.965Z,84.93
2019-02-22T03:36:57.705Z,84.44
2019-02-22T03:39:24.289Z,84.58
2019-02-22T03:41:50.662Z,84.39
2019-02-22T03:44:17.092Z,84.27
2019-02-22T03:46:43.485Z,84.04
2019-02-22T03:49:10.071Z,83.68
2019-02-22T03:51:36.765Z,83.57
2019-02-22T03:54:03.410Z,83.51
2019-02-22T03:56:29.932Z,83.55
2019-02-22T03:58:56.895Z,83.55
2019-02-22T04:01:23.477Z,82.52
2019-02-22T04:03:49.884Z,82.42
2019-02-22T04:06:16.153Z,82.53
2019-02-22T04:08:42.760Z,82.54
2019-02-22T04:11:09.265Z,82.15
2019-02-22T04:13:35.540Z,81.92
2019-02-22T04:16:01.980Z,81.90
2019-02-22T04:18:28.854Z,81.79
2019-02-22T04:20:56.930Z,81.99
2019-02-22T04:23:23.228Z,81.64
2019-02-22T04:25:51.284Z,81.87
2019-02-22T04:28:17.713Z,81.24
2019-02-22T04:30:44.210Z,81.62
2019-02-22T04:33:10.609Z,81.09
2019-02-22T04:35:37.095Z,81.46
2019-02-22T04:38:03.348Z,82.12
2019-02-22T04:40:29.693Z,82.28
2019-02-22T04:42:56.084Z,88.08
2019-02-22T04:45:23.118Z,85.82
2019-02-22T04:47:49.485Z,80.41
2019-02-22T04:50:16.260Z,80.21
2019-02-22T04:52:42.783Z,80.80
2019-02-22T04:55:09.211Z,81.14
2019-02-22T04:57:35.951Z,81.18
2019-02-22T05:00:03.221Z,81.68
2019-02-22T05:02:30.130Z,81.60
2019-02-22T05:04:56.841Z,82.18
2019-02-22T05:07:23.313Z,82.02
2019-02-22T05:09:49.850Z,82.68
2019-02-22T05:12:16.411Z,81.76
2019-02-22T05:14:42.714Z,80.51
2019-02-22T05:17:09.446Z,80.70
2019-02-22T05:19:36.043Z,80.02
2019-02-22T05:22:02.271Z,80.38
2019-02-22T05:24:29.031Z,80.06
2019-02-22T05:26:55.471Z,80.51
2019-02-22T05:29:22.853Z,80.15
2019-02-22T05:31:49.616Z,80.22
2019-02-22T05:34:16.209Z,80.89
2019-02-22T05:36:44.227Z,82.21
2019-02-22T05:42:45.957Z,82.98
2019-02-22T05:45:12.530Z,83.16
2019-02-22T05:47:39.391Z,83.59
2019-02-22T05:50:06.247Z,83.02
2019-02-22T05:52:32.861Z,82.34
2019-02-22T05:54:59.564Z,82.00
2019-02-22T05:57:25.912Z,81.94
2019-02-22T05:59:52.238Z,81.68
2019-02-22T06:02:18.797Z,81.38
2019-02-22T06:04:45.198Z,81.57
2019-02-22T06:07:14.463Z,81.32
2019-02-22T06:09:40.042Z,80.15
2019-02-22T06:12:06.270Z,80.17
2019-02-22T06:14:32.775Z,79.51
2019-02-22T06:16:59.428Z,78.97
2019-02-22T06:19:26.364Z,78.43
2019-02-22T06:21:52.820Z,77.16
2019-02-22T06:24:19.238Z,76.33
2019-02-22T06:26:45.579Z,76.70
2019-02-22T06:29:12.531Z,76.81
2019-02-22T06:31:39.043Z,76.84
2019-02-22T06:34:05.926Z,77.19
2019-02-22T06:36:32.304Z,76.98
2019-02-22T06:38:58.646Z,76.89
2019-02-22T06:41:25.111Z,76.98
2019-02-22T06:43:52.196Z,76.59
2019-02-22T06:46:19.083Z,76.89
2019-02-22T06:48:45.406Z,76.37
2019-02-22T06:51:11.829Z,76.52
2019-02-22T06:53:38.535Z,79.66
2019-02-22T06:56:04.924Z,77.18
2019-02-22T06:58:31.845Z,76.64
2019-02-22T07:00:58.369Z,78.00
2019-02-22T07:03:24.902Z,76.27
2019-02-22T07:05:51.201Z,76.81
2019-02-22T07:08:17.601Z,76.10
2019-02-22T07:11:04.214Z,76.39
2019-02-22T07:13:30.877Z,76.08
2019-02-22T07:15:57.400Z,75.01
2019-02-22T07:18:24.289Z,74.30
2019-02-22T07:20:50.836Z,74.84
2019-02-22T07:23:17.248Z,74.92
2019-02-22T07:25:43.684Z,74.68
2019-02-22T07:31:21.909Z,76.41
2019-02-22T07:33:48.447Z,75.97
2019-02-22T07:36:14.880Z,74.88
2019-02-22T07:38:41.615Z,73.61
2019-02-22T07:41:08.178Z,73.16
2019-02-22T07:43:34.571Z,73.25
2019-02-22T07:46:00.961Z,73.65
2019-02-22T07:48:27.839Z,72.56
2019-02-22T07:50:58.111Z,71.30
2019-02-22T07:53:22.479Z,71.59
2019-02-22T07:55:49.001Z,70.85
2019-02-22T07:58:15.892Z,71.12
2019-02-22T08:00:42.290Z,70.57
2019-02-22T08:03:08.749Z,70.55
2019-02-22T08:05:54.739Z,70.89
2019-02-22T08:08:22.715Z,70.30
2019-02-22T08:10:49.089Z,70.68
2019-02-22T08:13:19.792Z,70.79
2019-02-22T08:16:22.113Z,71.34
2019-02-22T08:19:01.411Z,71.16
2019-02-22T08:21:28.546Z,71.18
2019-02-22T08:23:54.884Z,71.64
2019-02-22T08:26:43.774Z,71.36
2019-02-22T08:29:07.748Z,71.45
2019-02-22T08:31:34.403Z,71.14
2019-02-22T08:34:01.313Z,69.34
2019-02-22T08:36:27.862Z,69.09
2019-02-22T08:38:54.104Z,69.29
2019-02-22T08:41:20.425Z,68.35
2019-02-22T08:43:46.808Z,69.01
2019-02-22T08:46:13.197Z,68.67
2019-02-22T08:48:39.804Z,68.01
2019-02-22T08:51:06.083Z,67.51
2019-02-22T08:53:32.401Z,67.82
2019-02-22T08:55:58.652Z,68.34
2019-02-22T08:58:25.084Z,67.00
2019-02-22T09:00:51.331Z,66.38
2019-02-22T09:03:17.539Z,66.80
2019-02-22T09:05:43.908Z,65.93
2019-02-22T09:08:10.205Z,66.68
2019-02-22T09:10:36.529Z,66.47
2019-02-22T09:13:02.900Z,66.48
2019-02-22T09:15:29.686Z,65.93
2019-02-22T09:17:56.318Z,66.25
2019-02-22T09:20:22.941Z,66.44
2019-02-22T09:22:49.397Z,65.69
2019-02-22T09:25:15.691Z,65.06
2019-02-22T09:27:42.073Z,63.59
2019-02-22T09:30:11.138Z,64.07
2019-02-22T09:32:37.460Z,64.61
2019-02-22T09:35:06.751Z,63.16
2019-02-22T09:37:33.135Z,62.85
2019-02-22T09:39:59.703Z,62.23
2019-02-22T09:42:26.196Z,61.84
2019-02-22T09:44:52.585Z,60.67
2019-02-22T09:47:18.878Z,61.67
2019-02-22T09:49:45.242Z,66.03
2019-02-22T09:52:11.671Z,59.79
2019-02-22T09:54:38.191Z,61.01
2019-02-22T09:57:05.033Z,60.83
2019-02-22T09:59:31.389Z,59.95
2019-02-22T10:01:58.113Z,58.06
2019-02-22T10:04:24.685Z,59.32
2019-02-22T10:06:51.250Z,56.52
2019-02-22T10:09:17.558Z,56.98
2019-02-22T10:11:44.166Z,56.66
2019-02-22T10:14:10.453Z,55.60
2019-02-22T10:16:36.920Z,56.56
2019-02-22T10:19:09.294Z,56.95
2019-02-22T10:21:35.590Z,56.63
2019-02-22T10:24:02.313Z,54.48
2019-02-22T10:30:08.148Z,55.47
2019-02-22T10:32:35.368Z,55.46
2019-02-22T10:35:01.972Z,54.83
2019-02-22T10:37:28.301Z,52.16
2019-02-22T10:39:55.921Z,51.45
2019-02-22T10:42:22.355Z,50.02
2019-02-22T10:44:49.061Z,50.87
2019-02-22T10:47:15.260Z,51.51
2019-02-22T10:49:41.750Z,50.28
2019-02-22T10:52:08.173Z,52.73
2019-02-22T10:54:34.607Z,53.38
2019-02-22T10:57:01.219Z,54.86
2019-02-22T10:59:27.660Z,54.53
2019-02-22T11:01:54.014Z,54.47
2019-02-22T11:04:20.400Z,56.53
2019-02-22T11:06:46.787Z,55.63
2019-02-22T11:09:14.474Z,52.06
2019-02-22T11:11:40.753Z,52.49
2019-02-22T11:14:07.339Z,48.33
2019-02-22T11:16:33.876Z,49.59
2019-02-22T11:19:00.154Z,50.71
2019-02-22T11:21:26.739Z,52.70
2019-02-22T11:23:53.217Z,49.96
2019-02-22T11:26:21.789Z,49.39
2019-02-22T11:28:48.111Z,50.80
2019-02-22T11:31:15.111Z,51.26
2019-02-22T11:33:41.970Z,49.65
2019-02-22T11:36:08.611Z,49.16
2019-02-22T11:38:44.986Z,48.83
2019-02-22T11:41:11.451Z,50.12
2019-02-22T11:43:38.075Z,49.52
2019-02-22T11:46:04.326Z,55.40
2019-02-22T11:48:30.847Z,47.78
2019-02-22T11:50:57.376Z,49.29
2019-02-22T11:53:23.711Z,50.31
2019-02-22T11:55:50.350Z,46.96
2019-02-22T11:58:17.211Z,45.13
2019-02-22T12:00:44.295Z,46.57
2019-02-22T12:03:23.608Z,49.09
2019-02-22T12:05:39.029Z,50.67
2019-02-22T12:08:05.498Z,54.25
2019-02-22T12:10:32.337Z,51.30
2019-02-22T12:12:58.557Z,54.61
2019-02-22T12:15:25.202Z,53.83
2019-02-22T12:17:51.659Z,54.09
2019-02-22T12:20:18.223Z,51.09
2019-02-22T12:22:44.823Z,49.21
2019-02-22T12:25:12.132Z,51.09
2019-02-22T12:27:38.768Z,53.16
2019-02-22T12:30:08.827Z,52.46
2019-02-22T12:32:35.334Z,50.95
2019-02-22T12:35:01.754Z,49.81
2019-02-22T12:37:28.035Z,51.05
2019-02-22T12:39:54.737Z,51.99
2019-02-22T12:42:21.116Z,49.63
2019-02-22T12:44:47.492Z,51.00
2019-02-22T12:47:13.754Z,50.59
2019-02-22T12:49:40.419Z,51.05
2019-02-22T12:52:06.764Z,50.05
2019-02-22T12:54:33.094Z,50.77
2019-02-22T12:56:59.600Z,52.87
2019-02-22T12:59:27.326Z,51.96
2019-02-22T13:01:53.811Z,50.49
2019-02-22T13:04:39.871Z,52.65
2019-02-22T13:07:19.438Z,53.83
2019-02-22T13:09:50.001Z,52.19
2019-02-22T13:12:17.382Z,52.37
2019-02-22T13:14:43.862Z,52.70
2019-02-22T13:17:10.509Z,52.51
2019-02-22T13:19:37.861Z,53.09
2019-02-22T13:22:04.897Z,53.73
2019-02-22T13:28:01.540Z,55.90
2019-02-22T13:30:27.963Z,56.75
2019-02-22T13:32:54.328Z,56.40
2019-02-22T13:35:20.871Z,57.38
2019-02-22T13:37:47.407Z,56.02
2019-02-22T13:40:15.151Z,55.81
2019-02-22T13:42:41.839Z,56.86
2019-02-22T13:45:09.942Z,56.79
2019-02-22T13:47:36.364Z,56.90
2019-02-22T13:50:05.851Z,56.73
2019-02-22T13:52:32.277Z,56.08
2019-02-22T13:54:58.668Z,56.63
2019-02-22T13:57:25.045Z,56.78
2019-02-22T13:59:51.438Z,56.96
2019-02-22T14:02:18.089Z,58.20
2019-02-22T14:04:44.608Z,56.66
2019-02-22T14:07:11.278Z,56.66
2019-02-22T14:09:37.741Z,57.34
2019-02-22T14:12:04.111Z,58.19
2019-02-22T14:14:32.487Z,59.18
2019-02-22T14:16:59.038Z,57.92
2019-02-22T14:19:27.447Z,57.36
2019-02-22T14:21:54.108Z,56.86
2019-02-22T14:24:20.702Z,56.87
2019-02-22T14:26:47.323Z,57.71
2019-02-22T14:29:13.789Z,57.05
2019-02-22T14:31:40.094Z,57.09
2019-02-22T14:34:06.595Z,58.08
2019-02-22T14:36:33.253Z,57.18
2019-02-22T14:38:59.767Z,58.02
2019-02-22T14:41:28.013Z,57.66
2019-02-22T14:43:54.785Z,57.50
2019-02-22T14:46:25.916Z,57.56
2019-02-22T14:48:49.326Z,57.95
2019-02-22T14:51:16.038Z,58.29
2019-02-22T14:53:42.332Z,58.32
2019-02-22T14:56:08.805Z,59.01
2019-02-22T14:58:35.197Z,58.46
2019-02-22T15:01:01.527Z,58.94
2019-02-22T15:03:28.357Z,60.27
2019-02-22T15:05:55.137Z,60.06
2019-02-22T15:08:21.466Z,60.29
2019-02-22T15:10:48.172Z,60.59
2019-02-22T15:13:16.741Z,61.50
2019-02-22T15:16:00.224Z,62.55
2019-02-22T15:18:19.737Z,60.67
2019-02-22T15:20:46.105Z,61.13
2019-02-22T15:23:12.393Z,62.30
2019-02-22T15:25:39.132Z,60.32
2019-02-22T15:28:05.863Z,59.91
2019-02-22T15:30:32.139Z,60.80
2019-02-22T15:32:58.572Z,61.29
2019-02-22T15:35:25.182Z,60.63
2019-02-22T15:37:51.793Z,58.82
2019-02-22T15:40:18.703Z,58.80
2019-02-22T15:42:45.225Z,59.14
2019-02-22T15:45:15.863Z,58.38
2019-02-22T15:47:42.509Z,59.12
2019-02-22T15:50:12.422Z,59.23
2019-02-22T15:52:39.291Z,58.78
2019-02-22T15:55:06.897Z,58.88
2019-02-22T15:57:33.372Z,59.38
2019-02-22T16:00:02.608Z,59.71
2019-02-22T16:02:29.026Z,59.94
2019-02-22T16:04:57.661Z,59.59
2019-02-22T16:07:24.049Z,59.18
2019-02-22T16:09:50.310Z,58.80
2019-02-22T16:12:16.727Z,59.40
2019-02-22T16:14:43.478Z,59.01
2019-02-22T16:17:09.938Z,58.85
2019-02-22T16:19:36.622Z,59.36
2019-02-22T16:22:03.419Z,59.88
2019-02-22T16:24:29.993Z,60.10
2019-02-22T16:27:02.195Z,59.72
2019-02-22T16:29:28.753Z,60.85
2019-02-22T16:31:55.290Z,60.10
2019-02-22T16:34:24.615Z,59.56
2019-02-22T16:36:56.470Z,60.68
2019-02-22T16:39:23.582Z,61.36
2019-02-22T16:41:51.493Z,61.07
2019-02-22T16:44:19.018Z,61.81
2019-02-22T16:46:50.197Z,61.32
2019-02-22T16:49:17.014Z,61.87
2019-02-22T16:51:43.607Z,62.45
2019-02-22T16:54:10.075Z,62.51
2019-02-22T16:56:37.109Z,62.91
2019-02-22T16:59:04.830Z,63.44
2019-02-22T17:01:31.856Z,63.07
2019-02-22T17:03:58.643Z,64.17
2019-02-22T17:06:25.137Z,63.76
2019-02-22T17:08:51.562Z,63.53
2019-02-22T17:11:17.993Z,63.07
2019-02-22T17:13:44.609Z,63.44
2019-02-22T17:16:16.636Z,63.71
2019-02-22T17:18:43.811Z,63.87
2019-02-22T17:21:10.383Z,62.42
2019-02-22T17:23:37.337Z,61.82
2019-02-22T17:26:04.733Z,62.62
2019-02-22T17:28:31.325Z,63.09
2019-02-22T17:30:57.699Z,61.82
2019-02-22T17:33:24.193Z,62.80
2019-02-22T17:35:50.778Z,62.33
2019-02-22T17:38:17.464Z,62.68
2019-02-22T17:40:44.061Z,62.84
2019-02-22T17:43:10.514Z,63.29
2019-02-22T17:45:36.864Z,62.63
2019-02-22T17:48:03.319Z,63.81
2019-02-22T17:50:29.780Z,62.99
2019-02-22T17:52:56.188Z,63.55
2019-02-22T17:55:22.739Z,64.23
2019-02-22T17:57:49.110Z,63.93
2019-02-22T18:03:38.576Z,65.77
2019-02-22T18:06:05.375Z,65.22
2019-02-22T18:08:32.664Z,64.78
2019-02-22T18:11:01.738Z,65.01
2019-02-22T18:13:28.764Z,65.08
2019-02-22T18:15:56.978Z,65.37
2019-02-22T18:18:23.312Z,65.68
2019-02-22T18:20:51.851Z,65.33
2019-02-22T18:23:18.959Z,64.19
2019-02-22T18:25:45.813Z,64.58
2019-02-22T18:28:12.808Z,64.61
2019-02-22T18:30:39.259Z,65.23
2019-02-22T18:33:05.777Z,64.98
2019-02-22T18:35:32.400Z,64.55
2019-02-22T18:37:59.021Z,65.57
2019-02-22T18:40:25.994Z,65.46
2019-02-22T18:42:52.622Z,65.43
2019-02-22T18:45:38.889Z,65.58
2019-02-22T18:48:06.779Z,67.06
2019-02-22T18:50:34.896Z,68.40
2019-02-22T18:53:01.744Z,68.29
2019-02-22T18:55:29.139Z,68.23
2019-02-22T18:57:55.924Z,68.26
2019-02-22T19:00:22.717Z,68.41
2019-02-22T19:02:49.326Z,68.21
2019-02-22T19:05:15.811Z,68.54
2019-02-22T19:07:42.249Z,68.31
2019-02-22T19:10:15.550Z,69.79
2019-02-22T19:12:42.016Z,70.96
2019-02-22T19:15:10.607Z,70.44
2019-02-22T19:20:48.353Z,70.36
2019-02-22T19:23:14.933Z,70.44
2019-02-22T19:25:41.763Z,70.47
2019-02-22T19:28:09.854Z,71.11
2019-02-22T19:30:36.176Z,70.37
2019-02-22T19:33:03.045Z,71.01
2019-02-22T19:35:30.372Z,70.92
2019-02-22T19:37:57.349Z,70.93
2019-02-22T19:40:28.599Z,71.59
2019-02-22T19:42:57.760Z,72.11
2019-02-22T19:45:27.572Z,72.27
2019-02-22T19:47:54.099Z,72.00
2019-02-22T19:50:21.570Z,71.82
2019-02-22T19:52:48.420Z,72.28
2019-02-22T19:55:17.172Z,73.31
2019-02-22T19:57:44.760Z,73.01
2019-02-22T20:00:19.167Z,73.03
2019-02-22T20:02:45.756Z,73.56
2019-02-22T20:05:15.846Z,73.23
2019-02-22T20:07:42.580Z,73.88
2019-02-22T20:10:18.166Z,73.62
2019-02-22T20:12:44.175Z,73.87
2019-02-22T20:15:12.937Z,74.12
2019-02-22T20:17:40.355Z,73.99
2019-02-22T20:20:13.485Z,73.69
2019-02-22T20:22:40.152Z,74.33
2019-02-22T20:25:07.802Z,74.07
2019-02-22T20:27:34.729Z,73.91
2019-02-22T20:30:01.408Z,74.07
2019-02-22T20:32:27.966Z,74.24
2019-02-22T20:34:55.593Z,74.33
2019-02-22T20:37:22.316Z,74.66
2019-02-22T20:39:48.707Z,74.35
2019-02-22T20:42:15.211Z,74.28
2019-02-22T20:44:41.999Z,74.86
2019-02-22T20:47:08.516Z,75.35
2019-02-22T20:49:36.059Z,75.11
2019-02-22T20:52:02.683Z,74.78
2019-02-22T20:54:29.374Z,74.08
2019-02-22T20:56:56.300Z,74.28
2019-02-22T20:59:22.852Z,74.09
2019-02-22T21:01:49.298Z,73.84
2019-02-22T21:04:15.959Z,74.13
2019-02-22T21:06:42.693Z,78.67
2019-02-22T21:09:09.331Z,76.65
2019-02-22T21:11:35.613Z,75.13
2019-02-22T21:14:02.155Z,74.05
2019-02-22T21:16:28.628Z,73.61
2019-02-22T21:18:55.431Z,73.53
2019-02-22T21:21:23.392Z,73.84
2019-02-22T21:23:52.048Z,74.34
2019-02-22T21:26:18.245Z,75.47
2019-02-22T21:28:44.586Z,75.46
2019-02-22T21:31:11.420Z,75.15
2019-02-22T21:33:38.151Z,75.49
2019-02-22T21:36:04.590Z,75.35
2019-02-22T21:38:31.036Z,75.33
2019-02-22T21:40:57.648Z,75.12
2019-02-22T21:43:24.176Z,75.33
2019-02-22T21:45:50.980Z,75.27
2019-02-22T21:48:27.243Z,75.81
2019-02-22T21:50:45.682Z,75.33
2019-02-22T21:53:12.076Z,75.45
2019-02-22T21:55:38.486Z,75.09
2019-02-22T21:58:05.305Z,75.60
2019-02-22T22:00:31.966Z,76.07
2019-02-22T22:02:58.329Z,75.41
2019-02-22T22:05:24.758Z,75.90
2019-02-22T22:07:54.127Z,75.81
2019-02-22T22:13:44.666Z,76.09
2019-02-22T22:16:11.574Z,75.93
2019-02-22T22:18:39.055Z,76.55
2019-02-22T22:21:05.608Z,76.33
2019-02-22T22:23:32.155Z,76.15
2019-02-22T22:25:59.024Z,76.50
2019-02-22T22:28:25.439Z,76.44
2019-02-22T22:30:52.146Z,77.10
2019-02-22T22:33:18.603Z,77.14
2019-02-22T22:35:48.003Z,76.70
2019-02-22T22:38:14.352Z,77.36
2019-02-22T22:40:40.845Z,77.52
2019-02-22T22:43:07.292Z,77.08
2019-02-22T22:45:33.729Z,77.21
2019-02-22T22:48:00.237Z,77.19
2019-02-22T22:50:26.499Z,77.52
2019-02-22T22:52:53.110Z,77.81
2019-02-22T22:55:19.464Z,77.77
2019-02-22T22:57:46.013Z,78.00
2019-02-22T23:00:39.679Z,78.07
2019-02-22T23:03:06.519Z,77.89
2019-02-22T23:05:37.558Z,77.72
2019-02-22T23:08:09.268Z,77.68
2019-02-22T23:10:50.508Z,77.87
2019-02-22T23:13:25.666Z,78.26
2019-02-22T23:15:56.132Z,78.66
2019-02-22T23:18:23.438Z,78.60
2019-02-22T23:20:50.465Z,78.84
2019-02-22T23:23:16.791Z,78.94
2019-02-22T23:25:43.061Z,79.07
2019-02-22T23:28:09.370Z,79.02
2019-02-22T23:30:35.885Z,79.54
2019-02-22T23:33:02.905Z,79.71
2019-02-22T23:35:29.263Z,80.02
2019-02-22T23:37:55.840Z,80.04
2019-02-22T23:40:22.342Z,80.36
2019-02-22T23:42:48.788Z,80.54
2019-02-22T23:45:15.621Z,80.14
2019-02-22T23:47:42.051Z,79.31
2019-02-22T23:50:15.746Z,79.79
2019-02-22T23:52:49.217Z,80.05
2019-02-22T23:55:19.723Z,80.19
2019-02-22T23:57:54.318Z,80.01
